x

Port Orford - 15 Nm West Of Port Orford, Or (46015) Wave Buoy

4:50pm - Sun 29th Mar 2015 All times are PDT. -7 hours from GMT.

  • Sig Wave height 9.5ft
  • Swell Direction
  • Peak Period 12s
  • Average Period 9s
  • Wind
    16mph, 20mph gusts
  • Sea Temp 55°f
  • Air Temp 55°f
  • Sea Pressure 1023.6mb
  • Port Orford - 15 Nm West Of Port Orford, Or
  • Port Orford - 15 Nm West Of Port Orford, Or

More Historic Weather Station data

Upgrade to MSW Pro to gain access to the past 30 days of data for over 8000 Wavebouys and Weather Stations around the globe.

Join Pro

Comparision Forecast

View Surf forecast
   
Sun 03/29 4:50pm 9.5ft 12s 9s 16 20 mph 1023.6mb 55f 55f
3:50pm 10ft 11s 9s 16 18 mph 1023.9mb 55f 55f
2:50pm 10.5ft 12s 9s 16 18 mph 1024.4mb 55f 54f
1:50pm 10ft 12s 9s 16 18 mph 1025.1mb 55f 54f
12:50pm 9ft 12s 9s 13 16 mph 1025.5mb 55f 53f
11:50am 8.5ft 12s 9s 11 13 mph 1025.9mb 54f 53f
10:50am 10ft 12s 9s 13 16 mph 1026.4mb 54f 53f
9:50am 8ft 12s 8s 13 16 mph 1026.1mb 54f 53f
8:50am 8.5ft 12s 9s 13 16 mph 1026mb 54f 53f
7:50am 7ft 11s 8s 13 16 mph 1026.2mb 54f 53f
6:50am 7ft 11s 8s 13 16 mph 1025.5mb 54f 53f
5:50am 6.5ft 11s 8s 13 16 mph 1025.6mb 54f 53f
4:50am 7ft 11s 7s 13 16 mph 1025.8mb 54f 53f
3:50am 6.5ft 11s 7s 13 18 mph 1025.9mb 54f 53f
2:50am 7.5ft 11s 7s 13 18 mph 1026.9mb 54f 53f
1:50am 7ft 10s 7s 16 18 mph 1027.2mb 54f 53f
12:50am 8ft 10s 7s 18 20 mph 1027.6mb 54f 54f
Sat 03/28 11:50pm 7.5ft 10s 7s 16 18 mph 1027mb 54f 54f
10:50pm 7.5ft 10s 7s 16 18 mph 1027mb 54f 54f
9:50pm 7ft 11s 7s 16 18 mph 1027.2mb 54f 54f
8:50pm 7.5ft 11s 7s 16 18 mph 1027.3mb 54f 54f
7:50pm 7ft 11s 7s 18 20 mph 1027.4mb 54f 54f
6:50pm 7ft 11s 7s 18 20 mph 1027.6mb 54f 54f
5:50pm 8ft 11s 8s 18 22 mph 1027.6mb 55f 54f
4:50pm 7.5ft 11s 7s 18 20 mph 1027.8mb 55f 54f
3:50pm 8ft 11s 8s 16 20 mph 1028.2mb 55f 54f
2:50pm 7.5ft 11s 8s 13 16 mph 1028.2mb 55f 54f
1:50pm 7ft 8s 8s 13 16 mph 1029.1mb 55f 54f
12:50pm 8ft 11s 8s 9 11 mph 1029.5mb 55f 53f
11:50am 7.5ft 11s 7s 4 7 mph 1029.9mb 55f 53f
10:50am 8ft 12s 8s 7 9 mph 1030.1mb 55f 53f
9:50am 8ft 12s 8s 4 7 mph 1030.2mb 54f 53f
8:50am 8.5ft 11s 8s 4 7 mph 1030mb 54f 53f
7:50am 8ft 10s 8s 7 9 mph 1029.9mb 54f 53f
6:50am 8.5ft 11s 8s 4
mph
1028.9mb 54f 53f
5:50am 9ft 12s 8s 4 7 mph 1028.2mb 54f 53f
4:50am 8ft 11s 8s 7
mph
1028mb 54f 53f
3:50am 7.5ft 12s 8s 4 7 mph 1028.1mb 54f 54f
2:50am 7.5ft 12s 8s  -  2 mph 1027.9mb 54f 54f
1:50am 8ft 11s 8s 4 7 mph 1027.9mb 54f 54f
12:50am 8ft 12s 8s 9 11 mph 1027.8mb 54f 54f
Fri 03/27 11:50pm 7ft 12s 7s 11 13 mph 1027.6mb 54f 54f
10:50pm 7ft 14s 7s 11 13 mph 1027mb 54f 54f
9:50pm 7.5ft 13s 8s 13 16 mph 1026.1mb 54f 55f
8:50pm 7ft 13s 7s 16 18 mph 1024.9mb 54f 55f
7:50pm 7ft 11s 7s 13 18 mph 1023.5mb 54f 55f
6:50pm 8ft 13s 8s 11 16 mph 1023.3mb 55f 54f
5:50pm 8ft 14s 7s 13 20 mph 1022.6mb 55f 53f
4:50pm 7.5ft 12s 7s 20 27 mph 1021.6mb 55f 54f
3:50pm 7.5ft 12s 7s 20 25 mph 1021.2mb 55f 54f
2:50pm 7.5ft 12s 7s 18 22 mph 1021.3mb 55f 54f
1:50pm 8ft 12s 8s 18 22 mph 1021.6mb 55f 54f
12:50pm 8.5ft 10s 9s 16 18 mph 1021.9mb 54f 54f
11:50am 8.5ft 11s 10s 13 16 mph 1021.9mb 54f 53f
10:50am 10ft 11s 10s 11
mph
1021.8mb 54f 53f
9:50am 8.5ft 11s 10s 9 11 mph 1021.4mb 54f 53f
8:50am 9ft 12s 10s 7 9 mph 1020.9mb 54f 53f
7:50am 7.5ft 12s 10s 7 11 mph 1020.5mb 54f 53f
6:50am 7ft 12s 9s 4 7 mph 1020mb 54f 53f
5:50am 8ft 11s 9s 4 9 mph 1019.7mb 54f 53f
4:50am 7.5ft 11s 9s 9 11 mph 1019.7mb 54f 53f
3:50am 7ft 12s 9s 2 4 mph 1019.7mb 54f 52f
2:50am 7ft 11s 9s 4 7 mph 1020.2mb 54f 52f
1:50am 7.5ft 12s 9s 4 9 mph 1020.2mb 54f 52f
12:50am 7ft 11s 8s 4 7 mph 1020.7mb 54f 51f
Thu 03/26 11:50pm 8ft 11s 8s 7 9 mph 1021mb 54f 51f
10:50pm 7.5ft 11s 8s 11 13 mph 1020.9mb 54f 51f
9:50pm 8ft 11s 8s 13 16 mph 1020.7mb 54f 51f
8:50pm 8ft 11s 8s 16
mph
1020.4mb 54f 51f
7:50pm 7ft 11s 7s 16 18 mph 1020.4mb 54f 51f
6:50pm 8ft 11s 8s 16 20 mph 1020.4mb 54f 51f
5:50pm 8ft 11s 8s 16 20 mph 1020.6mb 54f 51f
4:50pm 6.5ft 11s 7s 16 18 mph 1021mb 55f 52f
3:50pm 6ft 11s 7s 18 20 mph 1021.6mb 54f 52f
2:50pm 6ft 11s 7s 16 20 mph 1022.4mb 55f 52f
1:50pm 6ft 11s 7s 16 18 mph 1023.4mb 55f 51f
12:50pm 6ft 11s 7s 16 20 mph 1023.9mb 54f 51f
11:50am 6.5ft 11s 8s 16 20 mph 1024mb 54f 51f
10:50am 6.5ft 11s 7s 16 18 mph 1024.3mb 54f 51f
9:50am 7ft 11s 8s 16 18 mph 1024.1mb 54f 51f
8:50am 7.5ft 11s 8s 16 18 mph 1023.9mb 54f 50f
7:50am 8ft 10s 8s 13 16 mph 1023.9mb 54f 50f
6:50am 7ft 11s 8s 16 18 mph 1023.6mb 54f 50f
5:50am 7.5ft 11s 8s 13 16 mph 1023.8mb 54f 50f
4:50am 7ft 11s 8s 11 13 mph 1023.9mb 54f 50f
3:50am 7ft 11s 8s 11 13 mph 1024.2mb 54f 50f
2:50am 7ft 10s 8s 11 13 mph 1024.7mb 54f 51f
1:50am 7ft 11s 8s 11 13 mph 1025mb 55f 51f